Time;durP1;ratioP1;P1;durP2;ratioP2;P2;SDS_P1;SDS_P2;PMS_P1;PMS_P2;Temp;Humidity;BMP_temperature;BMP_pressure;BME280_temperature;BME280_humidity;BME280_pressure;Samples;Min_cycle;Max_cycle;Signal;HPM_P1;HPM_P2
2024/02/21 00:01:16;;;;;;;40.67;22.98;;;;;;;;;;5026931;28;20022;-53
2024/02/21 00:03:42;;;;;;;36.30;21.03;;;;;;;;;;5027021;28;20581;-54
2024/02/21 00:06:09;;;;;;;35.97;19.52;;;;;;;;;;5026427;28;20318;-50
2024/02/21 00:08:35;;;;;;;27.08;19.08;;;;;;;;;;5026740;28;20026;-53
2024/02/21 00:11:02;;;;;;;25.83;18.17;;;;;;;;;;5026516;28;20025;-50
2024/02/21 00:13:29;;;;;;;26.88;19.17;;;;;;;;;;5027058;28;20298;-51
2024/02/21 00:15:56;;;;;;;26.67;18.52;;;;;;;;;;5026615;28;20314;-52
2024/02/21 00:18:22;;;;;;;27.52;19.00;;;;;;;;;;5026671;28;20025;-50
2024/02/21 00:20:49;;;;;;;24.88;18.23;;;;;;;;;;5026430;28;20022;-53
2024/02/21 00:23:15;;;;;;;23.73;17.48;;;;;;;;;;5026847;28;20021;-54
2024/02/21 00:25:42;;;;;;;25.58;17.63;;;;;;;;;;5025971;28;20068;-50
2024/02/21 00:28:08;;;;;;;28.67;17.92;;;;;;;;;;5026520;28;20033;-52
2024/02/21 00:30:38;;;;;;;21.58;17.13;;;;;;;;;;5026434;28;20033;-54
2024/02/21 00:33:05;;;;;;;22.52;18.25;;;;;;;;;;5026192;28;20377;-52
2024/02/21 00:35:31;;;;;;;24.73;18.30;;;;;;;;;;5026419;28;20030;-56
2024/02/21 00:37:59;;;;;;;24.73;18.40;;;;;;;;;;5026437;28;20033;-53
2024/02/21 00:40:26;;;;;;;24.42;17.70;;;;;;;;;;5026170;28;20014;-52
2024/02/21 00:42:52;;;;;;;24.38;17.65;;;;;;;;;;5024540;28;20021;-52
2024/02/21 00:45:19;;;;;;;26.48;17.17;;;;;;;;;;5025679;28;20026;-47
2024/02/21 00:47:45;;;;;;;26.15;17.90;;;;;;;;;;5025469;28;20026;-46
2024/02/21 00:50:12;;;;;;;25.52;17.95;;;;;;;;;;5025517;28;20025;-46
2024/02/21 00:52:39;;;;;;;20.85;17.55;;;;;;;;;;5025079;28;20018;-47
2024/02/21 00:55:06;;;;;;;30.58;18.42;;;;;;;;;;5024758;28;20091;-56
2024/02/21 00:57:32;;;;;;;25.35;17.75;;;;;;;;;;5025343;28;20041;-46
2024/02/21 00:59:59;;;;;;;24.67;17.98;;;;;;;;;;5024496;28;20251;-57
2024/02/21 01:02:26;;;;;;;29.63;20.52;;;;;;;;;;5025119;28;20025;-55
2024/02/21 01:04:52;;;;;;;30.40;21.98;;;;;;;;;;5024878;28;20046;-58
2024/02/21 01:07:19;;;;;;;34.40;19.10;;;;;;;;;;5007671;28;20025;-58
2024/02/21 01:09:46;;;;;;;36.05;22.08;;;;;;;;;;5025045;28;20085;-52
2024/02/21 01:12:12;;;;;;;24.15;19.83;;;;;;;;;;5024618;28;20341;-53
2024/02/21 01:14:39;;;;;;;27.10;21.00;;;;;;;;;;5023076;28;20050;-50
2024/02/21 01:17:06;;;;;;;30.25;24.67;;;;;;;;;;5024967;28;20104;-53
2024/02/21 01:19:32;;;;;;;29.67;20.77;;;;;;;;;;5023891;28;20215;-49
2024/02/21 01:21:59;;;;;;;28.33;18.90;;;;;;;;;;5024195;28;20022;-54
2024/02/21 01:24:26;;;;;;;30.55;20.38;;;;;;;;;;5025274;28;20306;-50
2024/02/21 01:26:52;;;;;;;24.73;18.23;;;;;;;;;;5025084;28;20322;-57
2024/02/21 01:29:19;;;;;;;19.75;17.55;;;;;;;;;;5024913;28;20299;-55
2024/02/21 01:31:47;;;;;;;31.13;17.85;;;;;;;;;;5024850;28;20323;-52
2024/02/21 01:34:13;;;;;;;26.30;17.50;;;;;;;;;;5024685;28;20040;-50
2024/02/21 01:36:41;;;;;;;23.67;17.00;;;;;;;;;;5022730;28;20085;-54
2024/02/21 01:39:07;;;;;;;26.73;17.92;;;;;;;;;;5022529;28;20302;-56
2024/02/21 01:41:34;;;;;;;23.27;17.00;;;;;;;;;;5022858;28;20304;-51
2024/02/21 01:44:01;;;;;;;23.48;17.33;;;;;;;;;;5023251;28;20028;-55
2024/02/21 01:46:28;;;;;;;21.58;16.92;;;;;;;;;;5022801;28;20067;-53
2024/02/21 01:48:55;;;;;;;22.73;16.77;;;;;;;;;;5022753;28;20020;-55
2024/02/21 01:51:22;;;;;;;22.60;17.20;;;;;;;;;;5021598;28;20037;-52
2024/02/21 01:53:50;;;;;;;24.05;15.98;;;;;;;;;;5022814;28;20249;-52
2024/02/21 01:56:17;;;;;;;25.25;15.90;;;;;;;;;;5004645;28;20214;-49
2024/02/21 01:58:44;;;;;;;23.25;16.70;;;;;;;;;;5023245;28;20253;-44
2024/02/21 02:01:11;;;;;;;23.92;16.80;;;;;;;;;;5024219;28;20030;-50
2024/02/21 02:03:38;;;;;;;22.55;15.73;;;;;;;;;;5024331;28;20013;-46
2024/02/21 02:06:08;;;;;;;24.85;16.50;;;;;;;;;;5024083;28;20054;-46
2024/02/21 02:08:35;;;;;;;23.75;16.52;;;;;;;;;;5024365;28;20333;-45
2024/02/21 02:11:02;;;;;;;27.45;16.98;;;;;;;;;;5024081;28;20089;-50
2024/02/21 02:13:29;;;;;;;28.00;16.83;;;;;;;;;;5024362;28;20040;-54
2024/02/21 02:15:55;;;;;;;21.20;16.38;;;;;;;;;;5023537;28;20034;-51
2024/02/21 02:18:22;;;;;;;23.65;16.65;;;;;;;;;;5023960;28;20034;-49
2024/02/21 02:20:48;;;;;;;24.05;16.88;;;;;;;;;;5023396;28;20076;-51
2024/02/21 02:23:41;;;;;;;35.53;17.45;;;;;;;;;;5024094;28;20290;-44
2024/02/21 02:26:07;;;;;;;;;;;;;;;;;;5020518;28;20030;-48
2024/02/21 02:28:34;;;;;;;30.67;16.80;;;;;;;;;;5023733;28;19918;-52
2024/02/21 02:31:00;;;;;;;21.33;16.73;;;;;;;;;;5022486;28;20033;-51
2024/02/21 02:33:27;;;;;;;24.42;17.42;;;;;;;;;;5021097;28;20049;-44
2024/02/21 02:35:53;;;;;;;22.73;17.17;;;;;;;;;;5021902;28;20467;-55
2024/02/21 02:38:20;;;;;;;25.00;17.05;;;;;;;;;;5021123;28;20097;-51
2024/02/21 02:40:47;;;;;;;27.60;18.77;;;;;;;;;;5020708;28;20338;-53
2024/02/21 02:43:13;;;;;;;23.88;18.65;;;;;;;;;;5022973;28;20244;-52
2024/02/21 02:45:40;;;;;;;20.02;17.00;;;;;;;;;;5023417;28;20026;-53
2024/02/21 02:48:07;;;;;;;22.05;17.42;;;;;;;;;;5023394;28;20029;-50
2024/02/21 02:50:33;;;;;;;23.42;17.25;;;;;;;;;;5023673;28;20089;-48
2024/02/21 02:53:00;;;;;;;25.23;17.55;;;;;;;;;;5023557;28;20036;-48
2024/02/21 02:55:26;;;;;;;18.55;16.65;;;;;;;;;;5023103;28;20026;-51
2024/02/21 02:57:53;;;;;;;19.52;16.58;;;;;;;;;;5023715;28;20029;-49
2024/02/21 03:00:20;;;;;;;20.98;15.68;;;;;;;;;;5022899;28;20030;-52
2024/02/21 03:02:47;;;;;;;21.00;17.02;;;;;;;;;;5023088;28;20365;-50
2024/02/21 03:05:17;;;;;;;18.40;15.80;;;;;;;;;;5022713;28;20378;-48
2024/02/21 03:07:45;;;;;;;20.42;15.73;;;;;;;;;;5022571;28;20029;-53
2024/02/21 03:10:11;;;;;;;22.38;15.45;;;;;;;;;;5022438;28;20051;-50
2024/02/21 03:12:38;;;;;;;20.05;15.48;;;;;;;;;;5023507;28;20068;-54
2024/02/21 03:15:05;;;;;;;20.30;15.40;;;;;;;;;;5022523;28;20089;-54
2024/02/21 03:17:34;;;;;;;19.58;16.05;;;;;;;;;;5021559;28;20067;-52
2024/02/21 03:20:01;;;;;;;17.48;15.65;;;;;;;;;;5021789;28;20022;-50
2024/02/21 03:22:27;;;;;;;19.48;15.27;;;;;;;;;;5021917;28;20018;-54
2024/02/21 03:24:55;;;;;;;20.60;15.13;;;;;;;;;;5025407;28;20022;-54
2024/02/21 03:27:22;;;;;;;18.02;15.40;;;;;;;;;;5025019;28;20026;-50
2024/02/21 03:29:48;;;;;;;17.20;15.35;;;;;;;;;;5025771;28;20052;-52
2024/02/21 03:32:15;;;;;;;18.23;15.95;;;;;;;;;;5026925;28;20018;-51
2024/02/21 03:34:41;;;;;;;19.58;15.60;;;;;;;;;;5026643;28;20030;-46
2024/02/21 03:37:08;;;;;;;18.70;15.35;;;;;;;;;;5026636;28;20022;-52
2024/02/21 03:39:34;;;;;;;17.42;15.48;;;;;;;;;;5027341;28;20021;-50
2024/02/21 03:42:04;;;;;;;21.58;15.98;;;;;;;;;;5026737;28;20026;-48
2024/02/21 03:44:33;;;;;;;20.13;16.33;;;;;;;;;;5027082;28;20022;-54
2024/02/21 03:47:00;;;;;;;20.80;16.40;;;;;;;;;;5026891;28;20026;-52
2024/02/21 03:49:27;;;;;;;24.02;15.73;;;;;;;;;;5026626;28;20021;-48
2024/02/21 03:51:54;;;;;;;18.30;15.65;;;;;;;;;;5026587;28;20040;-53
2024/02/21 03:54:20;;;;;;;22.55;16.00;;;;;;;;;;5027068;28;20018;-51
2024/02/21 03:56:50;;;;;;;18.98;16.38;;;;;;;;;;5026130;28;20030;-50
2024/02/21 03:59:17;;;;;;;20.95;15.63;;;;;;;;;;5026786;28;20067;-51
2024/02/21 04:01:43;;;;;;;22.92;16.42;;;;;;;;;;5026496;28;20322;-53
2024/02/21 04:04:11;;;;;;;20.77;15.73;;;;;;;;;;5026492;28;20109;-44
2024/02/21 04:06:37;;;;;;;19.60;15.98;;;;;;;;;;5026274;28;20022;-44
2024/02/21 04:09:04;;;;;;;17.35;15.40;;;;;;;;;;5026805;28;20026;-50
2024/02/21 04:11:31;;;;;;;20.95;16.35;;;;;;;;;;5025939;28;20325;-50
2024/02/21 04:13:57;;;;;;;19.70;16.83;;;;;;;;;;5025991;28;20306;-49
2024/02/21 04:16:24;;;;;;;21.58;16.52;;;;;;;;;;5026289;28;20088;-51
2024/02/21 04:18:52;;;;;;;22.40;17.23;;;;;;;;;;5026323;28;20377;-51
2024/02/21 04:21:18;;;;;;;20.23;16.33;;;;;;;;;;5025996;28;20329;-51
2024/02/21 04:23:45;;;;;;;20.25;16.25;;;;;;;;;;5026500;28;20045;-46
2024/02/21 04:26:11;;;;;;;21.15;17.10;;;;;;;;;;5025859;28;20376;-52
2024/02/21 04:28:38;;;;;;;20.23;16.60;;;;;;;;;;5026168;28;20040;-48
2024/02/21 04:31:05;;;;;;;21.00;16.40;;;;;;;;;;5025453;28;20030;-53
2024/02/21 04:33:31;;;;;;;19.92;16.27;;;;;;;;;;5025267;28;20030;-54
2024/02/21 04:35:59;;;;;;;20.85;16.15;;;;;;;;;;5025084;28;20101;-47
2024/02/21 04:38:25;;;;;;;22.85;17.50;;;;;;;;;;5025831;28;20096;-48
2024/02/21 04:40:52;;;;;;;18.80;16.38;;;;;;;;;;5025848;28;20033;-53
2024/02/21 04:43:19;;;;;;;20.70;16.98;;;;;;;;;;5025932;28;20017;-45
2024/02/21 04:45:45;;;;;;;19.42;16.35;;;;;;;;;;5025671;28;20067;-48
2024/02/21 04:48:12;;;;;;;18.75;16.50;;;;;;;;;;5025942;28;20021;-48
2024/02/21 04:50:38;;;;;;;19.05;17.02;;;;;;;;;;5025650;28;20057;-48
2024/02/21 04:53:05;;;;;;;19.98;16.83;;;;;;;;;;5025543;28;20044;-50
2024/02/21 04:55:31;;;;;;;19.10;16.27;;;;;;;;;;5025485;28;20037;-53
2024/02/21 04:57:58;;;;;;;18.58;16.05;;;;;;;;;;5025172;28;20036;-51
2024/02/21 05:00:24;;;;;;;18.38;16.42;;;;;;;;;;5025121;28;20060;-53
2024/02/21 05:02:51;;;;;;;20.50;16.58;;;;;;;;;;5025446;28;20025;-52
2024/02/21 05:05:18;;;;;;;19.70;17.48;;;;;;;;;;5025175;28;20096;-51
2024/02/21 05:07:45;;;;;;;19.17;15.57;;;;;;;;;;5025342;28;20207;-52
2024/02/21 05:10:11;;;;;;;18.25;16.38;;;;;;;;;;5025219;28;20040;-48
2024/02/21 05:12:38;;;;;;;20.05;16.10;;;;;;;;;;5025346;28;20202;-42
2024/02/21 05:15:05;;;;;;;20.75;16.13;;;;;;;;;;5025027;28;20380;-48
2024/02/21 05:17:31;;;;;;;20.25;16.20;;;;;;;;;;5025115;28;20021;-52
2024/02/21 05:19:58;;;;;;;19.75;16.17;;;;;;;;;;5025180;28;20047;-42
2024/02/21 05:22:24;;;;;;;18.27;16.30;;;;;;;;;;5024903;28;20028;-50
2024/02/21 05:24:51;;;;;;;20.73;16.40;;;;;;;;;;5025125;28;20072;-49
2024/02/21 05:27:17;;;;;;;19.70;16.77;;;;;;;;;;5024961;28;20322;-51
2024/02/21 05:29:44;;;;;;;20.25;16.33;;;;;;;;;;5025130;28;20341;-51
2024/02/21 05:32:11;;;;;;;20.88;16.35;;;;;;;;;;5024976;28;20022;-50
2024/02/21 05:34:37;;;;;;;19.52;15.80;;;;;;;;;;5025344;28;20229;-52
2024/02/21 05:37:04;;;;;;;21.70;16.48;;;;;;;;;;5025133;28;20205;-54
2024/02/21 05:39:30;;;;;;;21.83;16.35;;;;;;;;;;5025162;28;20026;-51
2024/02/21 05:41:57;;;;;;;19.33;15.75;;;;;;;;;;5024813;28;20026;-53
2024/02/21 05:44:23;;;;;;;18.60;16.40;;;;;;;;;;5025032;28;20018;-46
2024/02/21 05:46:50;;;;;;;20.20;16.33;;;;;;;;;;5024559;28;20097;-50
2024/02/21 05:49:16;;;;;;;17.70;15.80;;;;;;;;;;5025069;28;20017;-50
2024/02/21 05:51:43;;;;;;;20.10;16.55;;;;;;;;;;5024818;28;20030;-46
2024/02/21 05:54:09;;;;;;;20.40;16.35;;;;;;;;;;5024989;28;20410;-48
2024/02/21 05:56:36;;;;;;;18.90;16.63;;;;;;;;;;5024501;28;20029;-49
2024/02/21 05:59:03;;;;;;;18.23;16.02;;;;;;;;;;5024770;28;20013;-48
2024/02/21 06:01:29;;;;;;;18.30;16.35;;;;;;;;;;5024351;28;20033;-53
2024/02/21 06:03:56;;;;;;;17.42;15.65;;;;;;;;;;5024727;28;20032;-51
2024/02/21 06:06:22;;;;;;;18.70;16.70;;;;;;;;;;5024243;28;20056;-48
2024/02/21 06:08:49;;;;;;;20.50;16.83;;;;;;;;;;5024450;28;20022;-56
2024/02/21 06:11:16;;;;;;;18.38;16.27;;;;;;;;;;5024358;28;20029;-53
2024/02/21 06:13:42;;;;;;;19.05;16.98;;;;;;;;;;5024550;28;20025;-52
2024/02/21 06:16:09;;;;;;;18.25;16.42;;;;;;;;;;5024114;28;20029;-52
2024/02/21 06:18:39;;;;;;;19.67;16.65;;;;;;;;;;5024562;28;20132;-49
2024/02/21 06:21:06;;;;;;;19.73;16.25;;;;;;;;;;5024208;28;20026;-53
2024/02/21 06:23:32;;;;;;;19.30;16.60;;;;;;;;;;5023894;28;20069;-50
2024/02/21 06:25:59;;;;;;;19.73;17.63;;;;;;;;;;5024011;28;20081;-53
2024/02/21 06:28:26;;;;;;;20.13;17.27;;;;;;;;;;5024199;28;20183;-51
2024/02/21 06:30:52;;;;;;;20.92;16.67;;;;;;;;;;5023873;28;20221;-52
2024/02/21 06:33:22;;;;;;;20.88;16.67;;;;;;;;;;5024305;28;20179;-55
2024/02/21 06:35:52;;;;;;;22.23;16.63;;;;;;;;;;5024081;28;20040;-55
2024/02/21 06:38:18;;;;;;;19.30;17.20;;;;;;;;;;5023908;28;20080;-51
2024/02/21 06:40:49;;;;;;;20.65;16.90;;;;;;;;;;5023903;28;20033;-50
2024/02/21 06:43:17;;;;;;;20.85;16.88;;;;;;;;;;5024065;28;20022;-50
2024/02/21 06:45:47;;;;;;;18.80;16.83;;;;;;;;;;5024115;28;20032;-52
2024/02/21 06:48:14;;;;;;;19.95;17.10;;;;;;;;;;5024018;28;20025;-50
2024/02/21 06:50:40;;;;;;;18.63;16.65;;;;;;;;;;5023759;28;20053;-48
2024/02/21 06:53:07;;;;;;;23.08;16.48;;;;;;;;;;5024076;28;20049;-51
2024/02/21 06:55:34;;;;;;;22.90;17.33;;;;;;;;;;5023914;28;20029;-53
2024/02/21 06:58:01;;;;;;;22.77;16.80;;;;;;;;;;5025160;28;20025;-50
2024/02/21 07:00:29;;;;;;;23.83;16.92;;;;;;;;;;5027286;28;20488;-48
2024/02/21 07:02:56;;;;;;;19.02;16.60;;;;;;;;;;5027632;28;20026;-52
2024/02/21 07:05:22;;;;;;;19.30;16.48;;;;;;;;;;5027563;28;20372;-52
2024/02/21 07:07:49;;;;;;;18.40;16.70;;;;;;;;;;5027498;28;20040;-49
2024/02/21 07:10:15;;;;;;;19.13;16.88;;;;;;;;;;5027616;28;20033;-42
2024/02/21 07:12:43;;;;;;;19.23;17.13;;;;;;;;;;5027548;28;20025;-47
2024/02/21 07:15:09;;;;;;;20.08;15.93;;;;;;;;;;5027431;28;20026;-53
2024/02/21 07:17:36;;;;;;;20.45;16.80;;;;;;;;;;5027284;28;20022;-54
2024/02/21 07:20:03;;;;;;;19.17;17.17;;;;;;;;;;5027435;28;20242;-54
2024/02/21 07:22:29;;;;;;;18.33;16.48;;;;;;;;;;5027179;28;20022;-54
2024/02/21 07:24:56;;;;;;;18.77;15.75;;;;;;;;;;5027354;28;20022;-48
2024/02/21 07:27:22;;;;;;;19.73;16.88;;;;;;;;;;5027132;28;20205;-52
2024/02/21 07:29:49;;;;;;;18.75;16.85;;;;;;;;;;5027094;28;20022;-51
2024/02/21 07:32:16;;;;;;;21.20;17.10;;;;;;;;;;5027001;28;20081;-53
2024/02/21 07:34:43;;;;;;;18.63;16.70;;;;;;;;;;5027127;28;20025;-53
2024/02/21 07:37:10;;;;;;;18.92;15.70;;;;;;;;;;5027071;28;20036;-51
2024/02/21 07:39:40;;;;;;;19.90;17.27;;;;;;;;;;5027380;28;20046;-52
2024/02/21 07:42:06;;;;;;;20.33;16.65;;;;;;;;;;5027223;28;20022;-52
2024/02/21 07:44:34;;;;;;;19.27;16.65;;;;;;;;;;5026655;28;20133;-48
2024/02/21 07:47:01;;;;;;;18.60;16.60;;;;;;;;;;5026816;28;20073;-47
2024/02/21 07:49:27;;;;;;;18.88;16.48;;;;;;;;;;5027247;28;20033;-52
2024/02/21 07:51:54;;;;;;;19.13;16.55;;;;;;;;;;5026598;28;20364;-52
2024/02/21 07:54:20;;;;;;;20.40;16.98;;;;;;;;;;5027198;28;20029;-44
2024/02/21 07:56:47;;;;;;;22.13;17.40;;;;;;;;;;5026892;28;20029;-50
2024/02/21 07:59:14;;;;;;;22.27;17.17;;;;;;;;;;5026968;28;20068;-51
2024/02/21 08:01:41;;;;;;;20.83;16.42;;;;;;;;;;5026625;28;20026;-53
2024/02/21 08:04:07;;;;;;;19.52;16.73;;;;;;;;;;5026416;28;20056;-52
2024/02/21 08:06:34;;;;;;;18.63;16.67;;;;;;;;;;5026246;28;20053;-51
2024/02/21 08:09:00;;;;;;;18.83;16.58;;;;;;;;;;5027241;28;20025;-44
2024/02/21 08:11:27;;;;;;;18.70;16.73;;;;;;;;;;5026575;28;20045;-53
2024/02/21 08:13:53;;;;;;;18.63;16.50;;;;;;;;;;5026727;28;20057;-50
2024/02/21 08:16:20;;;;;;;20.33;17.27;;;;;;;;;;5027010;28;20094;-52
2024/02/21 08:18:47;;;;;;;18.98;15.57;;;;;;;;;;5026771;28;20026;-48
2024/02/21 08:21:13;;;;;;;18.08;16.38;;;;;;;;;;5026284;28;20240;-45
2024/02/21 08:23:40;;;;;;;20.42;17.20;;;;;;;;;;5026414;28;20021;-49
2024/02/21 08:26:06;;;;;;;22.98;16.90;;;;;;;;;;5026219;28;20218;-51
2024/02/21 08:28:33;;;;;;;23.88;17.58;;;;;;;;;;5026197;28;20206;-47
2024/02/21 08:31:00;;;;;;;23.75;17.45;;;;;;;;;;5026624;28;20034;-50
2024/02/21 08:33:27;;;;;;;23.90;17.35;;;;;;;;;;5026240;28;20325;-51
2024/02/21 08:35:54;;;;;;;21.02;17.08;;;;;;;;;;5025944;28;20026;-54
2024/02/21 08:38:20;;;;;;;21.33;16.58;;;;;;;;;;5026099;28;20403;-46
2024/02/21 08:40:47;;;;;;;20.95;17.10;;;;;;;;;;5025968;28;20045;-45
2024/02/21 08:43:13;;;;;;;21.38;17.42;;;;;;;;;;5026014;28;20290;-54
2024/02/21 08:45:40;;;;;;;24.55;17.20;;;;;;;;;;5025623;28;20077;-45
2024/02/21 08:48:08;;;;;;;21.33;17.52;;;;;;;;;;5025999;28;20029;-43
2024/02/21 08:50:36;;;;;;;18.83;16.10;;;;;;;;;;5025609;28;20346;-49
2024/02/21 08:53:02;;;;;;;18.52;16.60;;;;;;;;;;5025523;28;20026;-51
2024/02/21 08:55:29;;;;;;;21.73;17.40;;;;;;;;;;5025606;28;20072;-42
2024/02/21 08:57:55;;;;;;;20.83;16.90;;;;;;;;;;5025623;28;20084;-50
2024/02/21 09:00:26;;;;;;;20.88;17.13;;;;;;;;;;5025610;28;20024;-54
2024/02/21 09:02:55;;;;;;;21.27;16.45;;;;;;;;;;5025392;28;20033;-53
2024/02/21 09:05:22;;;;;;;20.27;16.40;;;;;;;;;;5024711;28;20084;-45
2024/02/21 09:07:49;;;;;;;20.23;17.25;;;;;;;;;;5024375;28;20061;-43
2024/02/21 09:10:15;;;;;;;20.92;16.98;;;;;;;;;;5024326;28;20112;-50
2024/02/21 09:12:42;;;;;;;21.10;17.10;;;;;;;;;;5024445;28;20034;-44
2024/02/21 09:15:09;;;;;;;19.48;17.30;;;;;;;;;;5024212;28;20093;-49
2024/02/21 09:17:35;;;;;;;19.65;17.42;;;;;;;;;;5024355;28;20026;-48
2024/02/21 09:20:03;;;;;;;20.58;17.05;;;;;;;;;;5024164;28;20064;-42
2024/02/21 09:22:31;;;;;;;18.40;16.58;;;;;;;;;;5023853;28;20203;-42
2024/02/21 09:24:58;;;;;;;20.80;16.65;;;;;;;;;;5024187;28;20089;-43
2024/02/21 09:27:25;;;;;;;21.08;16.98;;;;;;;;;;5024038;28;20022;-42
2024/02/21 09:29:51;;;;;;;20.30;16.50;;;;;;;;;;5023950;28;20093;-49
2024/02/21 09:32:21;;;;;;;21.65;17.20;;;;;;;;;;5024076;28;20021;-42
2024/02/21 09:34:48;;;;;;;18.67;16.70;;;;;;;;;;5024002;28;20038;-45
2024/02/21 09:37:14;;;;;;;27.83;18.52;;;;;;;;;;5023794;28;20244;-41
2024/02/21 09:39:41;;;;;;;20.48;16.90;;;;;;;;;;5023910;28;20330;-49
2024/02/21 09:42:07;;;;;;;19.98;17.58;;;;;;;;;;5023984;28;20349;-42
2024/02/21 09:44:38;;;;;;;21.23;17.42;;;;;;;;;;5024199;28;20351;-52
2024/02/21 09:47:07;;;;;;;22.55;17.27;;;;;;;;;;5023935;28;20030;-51
2024/02/21 09:49:37;;;;;;;19.35;17.27;;;;;;;;;;5024300;28;20030;-45
2024/02/21 09:52:06;;;;;;;24.17;16.85;;;;;;;;;;5023728;28;20298;-43
2024/02/21 09:54:33;;;;;;;21.95;16.33;;;;;;;;;;5024169;28;20022;-43
2024/02/21 09:57:09;;;;;;;19.58;16.77;;;;;;;;;;5023618;28;20029;-44
2024/02/21 09:59:35;;;;;;;23.00;17.20;;;;;;;;;;5024119;28;20022;-43
2024/02/21 10:02:02;;;;;;;21.80;17.95;;;;;;;;;;5023628;28;20097;-43
2024/02/21 10:04:30;;;;;;;21.33;17.43;;;;;;;;;;4946522;28;2227601;-46
2024/02/21 10:06:57;;;;;;;19.15;17.10;;;;;;;;;;5024591;28;20037;-44
2024/02/21 10:09:27;;;;;;;18.85;16.25;;;;;;;;;;5024682;28;20033;-48
2024/02/21 10:11:54;;;;;;;25.25;17.05;;;;;;;;;;5024095;28;20333;-49
2024/02/21 10:14:20;;;;;;;27.33;17.38;;;;;;;;;;5024636;28;20045;-57
2024/02/21 10:17:00;;;;;;;20.58;17.73;;;;;;;;;;5024116;28;20030;-48
2024/02/21 10:19:27;;;;;;;20.08;16.38;;;;;;;;;;5024964;28;20325;-45
2024/02/21 10:22:04;;;;;;;19.27;17.20;;;;;;;;;;5024185;28;20053;-44
2024/02/21 10:24:32;;;;;;;18.50;16.55;;;;;;;;;;5024490;28;20088;-49
2024/02/21 10:27:08;;;;;;;19.35;17.38;;;;;;;;;;5024031;28;20034;-47
2024/02/21 10:29:35;;;;;;;20.38;17.38;;;;;;;;;;5024445;28;20049;-42
2024/02/21 10:32:09;;;;;;;23.30;16.95;;;;;;;;;;5023399;28;20103;-41
2024/02/21 10:34:36;;;;;;;19.65;16.95;;;;;;;;;;5024428;28;20045;-45
2024/02/21 10:37:05;;;;;;;20.92;17.45;;;;;;;;;;5023879;28;20034;-40
2024/02/21 10:39:36;;;;;;;27.95;17.80;;;;;;;;;;5024384;28;20021;-43
2024/02/21 10:42:04;;;;;;;19.15;16.98;;;;;;;;;;5023829;28;20033;-49
2024/02/21 10:44:31;;;;;;;23.92;18.73;;;;;;;;;;5024268;28;20024;-43
2024/02/21 10:46:58;;;;;;;23.02;17.75;;;;;;;;;;5023847;28;20214;-50
2024/02/21 10:49:26;;;;;;;26.38;18.75;;;;;;;;;;5024201;28;20029;-50
2024/02/21 10:51:56;;;;;;;26.13;18.27;;;;;;;;;;5023670;28;20025;-46
2024/02/21 10:54:33;;;;;;;22.08;17.80;;;;;;;;;;5024246;28;20242;-50
2024/02/21 10:57:01;;;;;;;27.42;18.50;;;;;;;;;;5023675;28;20041;-44
2024/02/21 10:59:30;;;;;;;26.65;18.02;;;;;;;;;;5024107;28;20025;-50
2024/02/21 11:01:56;;;;;;;26.48;18.75;;;;;;;;;;5023785;28;20101;-50
2024/02/21 11:04:23;;;;;;;25.98;18.50;;;;;;;;;;5023773;28;20041;-47
2024/02/21 11:06:50;;;;;;;33.65;19.08;;;;;;;;;;5023637;28;20022;-50
2024/02/21 11:09:17;;;;;;;34.30;19.42;;;;;;;;;;5024008;28;20089;-57
2024/02/21 11:11:47;;;;;;;26.77;19.05;;;;;;;;;;5023500;28;20026;-48
2024/02/21 11:14:20;;;;;;;31.05;19.13;;;;;;;;;;5024045;28;20052;-45
2024/02/21 11:16:46;;;;;;;25.73;18.48;;;;;;;;;;5023631;28;20050;-45
2024/02/21 11:19:23;;;;;;;26.73;19.02;;;;;;;;;;5023098;28;20026;-51
2024/02/21 11:21:50;;;;;;;26.88;19.17;;;;;;;;;;5023395;28;20026;-51
2024/02/21 11:24:32;;;;;;;32.35;21.85;;;;;;;;;;5023396;28;20022;-50
2024/02/21 11:27:26;;;;;;;28.00;21.00;;;;;;;;;;5023449;28;20089;-55
2024/02/21 11:29:57;;;;;;;25.27;21.17;;;;;;;;;;5023291;28;20029;-49
2024/02/21 11:32:24;;;;;;;26.42;20.58;;;;;;;;;;5023368;28;20337;-52
2024/02/21 11:34:55;;;;;;;29.48;20.02;;;;;;;;;;5023414;28;20032;-50
2024/02/21 11:37:21;;;;;;;25.33;20.65;;;;;;;;;;5023284;28;20068;-54
2024/02/21 11:39:48;;;;;;;26.08;20.10;;;;;;;;;;5022442;28;20346;-57
2024/02/21 11:42:15;;;;;;;27.65;20.67;;;;;;;;;;5021514;28;20022;-52
2024/02/21 11:44:42;;;;;;;33.35;21.38;;;;;;;;;;5023887;28;20018;-54
2024/02/21 11:47:09;;;;;;;27.27;20.52;;;;;;;;;;5025367;28;20018;-54
2024/02/21 11:49:39;;;;;;;37.58;21.85;;;;;;;;;;5026513;28;20049;-55
2024/02/21 11:52:06;;;;;;;28.30;21.88;;;;;;;;;;5025926;28;20029;-58
2024/02/21 11:54:34;;;;;;;36.15;21.63;;;;;;;;;;5026548;28;20033;-61
2024/02/21 11:57:01;;;;;;;26.88;20.17;;;;;;;;;;5026522;28;20033;-61
2024/02/21 11:59:28;;;;;;;25.85;19.92;;;;;;;;;;5026964;28;20029;-61
2024/02/21 12:01:54;;;;;;;30.83;20.85;;;;;;;;;;5026468;28;20072;-52
2024/02/21 12:04:23;;;;;;;24.23;19.40;;;;;;;;;;5026672;28;20084;-54
2024/02/21 12:06:50;;;;;;;28.67;19.73;;;;;;;;;;5026481;28;20374;-52
2024/02/21 12:09:17;;;;;;;28.40;19.27;;;;;;;;;;5026722;28;20041;-52
2024/02/21 12:11:44;;;;;;;30.92;19.17;;;;;;;;;;5026143;28;20022;-49
2024/02/21 12:14:11;;;;;;;24.60;20.02;;;;;;;;;;5026850;28;20028;-48
2024/02/21 12:16:37;;;;;;;27.13;19.67;;;;;;;;;;5026216;28;20022;-51
2024/02/21 12:19:04;;;;;;;25.20;18.88;;;;;;;;;;5026495;28;20238;-51
2024/02/21 12:21:32;;;;;;;24.35;18.63;;;;;;;;;;5026100;28;20080;-50
2024/02/21 12:24:11;;;;;;;24.05;19.17;;;;;;;;;;5026543;28;20021;-51
2024/02/21 12:26:38;;;;;;;25.70;18.52;;;;;;;;;;5026171;28;20029;-50
2024/02/21 12:29:04;;;;;;;23.73;18.50;;;;;;;;;;5026487;28;20026;-54
2024/02/21 12:31:31;;;;;;;26.35;17.95;;;;;;;;;;5026205;28;20079;-55
2024/02/21 12:33:58;;;;;;;23.50;17.98;;;;;;;;;;5026099;28;20180;-56
2024/02/21 12:36:24;;;;;;;24.65;18.20;;;;;;;;;;5026208;28;20050;-54
2024/02/21 12:38:51;;;;;;;25.90;18.58;;;;;;;;;;5026088;28;20022;-56
2024/02/21 12:41:18;;;;;;;27.05;17.98;;;;;;;;;;5025891;28;20084;-56
2024/02/21 12:43:44;;;;;;;26.85;17.38;;;;;;;;;;5025706;28;20025;-57
2024/02/21 12:46:11;;;;;;;23.58;18.27;;;;;;;;;;5025837;28;20018;-59
2024/02/21 12:48:37;;;;;;;31.73;18.08;;;;;;;;;;5025783;28;20026;-56
2024/02/21 12:51:04;;;;;;;30.98;18.20;;;;;;;;;;5025838;28;20222;-56
2024/02/21 12:53:31;;;;;;;35.08;18.00;;;;;;;;;;5025889;28;20038;-49
2024/02/21 12:55:57;;;;;;;33.88;19.67;;;;;;;;;;5024355;28;20318;-55
2024/02/21 12:58:24;;;;;;;31.92;18.98;;;;;;;;;;5025715;28;20029;-55
2024/02/21 13:00:50;;;;;;;30.33;18.70;;;;;;;;;;5025442;28;20029;-49
2024/02/21 13:03:17;;;;;;;33.58;19.50;;;;;;;;;;5025509;28;20022;-52
2024/02/21 13:05:43;;;;;;;26.13;18.58;;;;;;;;;;5025267;28;20329;-53
2024/02/21 13:08:11;;;;;;;32.20;18.52;;;;;;;;;;5025595;28;20057;-46
2024/02/21 13:10:38;;;;;;;30.70;19.70;;;;;;;;;;5025118;28;20030;-48
2024/02/21 13:13:04;;;;;;;26.25;18.73;;;;;;;;;;5025443;28;20034;-52
2024/02/21 13:15:31;;;;;;;28.05;18.85;;;;;;;;;;5025196;28;20033;-53
2024/02/21 13:17:58;;;;;;;29.48;19.02;;;;;;;;;;5025179;28;20091;-52
2024/02/21 13:20:26;;;;;;;23.48;18.25;;;;;;;;;;5025026;28;20029;-53
2024/02/21 13:22:53;;;;;;;24.67;18.80;;;;;;;;;;5024837;28;20052;-52
2024/02/21 13:25:21;;;;;;;25.10;18.38;;;;;;;;;;5024939;28;20374;-52
2024/02/21 13:27:48;;;;;;;22.02;18.02;;;;;;;;;;5024910;28;20029;-51
2024/02/21 13:30:19;;;;;;;23.40;18.23;;;;;;;;;;5024817;28;20053;-54
2024/02/21 13:32:46;;;;;;;26.23;19.25;;;;;;;;;;5024768;28;20064;-50
2024/02/21 13:35:13;;;;;;;26.35;19.23;;;;;;;;;;5024735;28;20032;-55
2024/02/21 13:37:40;;;;;;;27.38;19.73;;;;;;;;;;5024663;28;20041;-48
2024/02/21 13:40:08;;;;;;;28.13;20.42;;;;;;;;;;5024594;28;20112;-51
2024/02/21 13:42:35;;;;;;;31.35;20.95;;;;;;;;;;5024806;28;20302;-48
2024/02/21 13:45:02;;;;;;;31.73;21.85;;;;;;;;;;5024714;28;20026;-56
2024/02/21 13:47:29;;;;;;;28.58;23.77;;;;;;;;;;5024583;28;20246;-50
2024/02/21 13:49:56;;;;;;;30.08;23.33;;;;;;;;;;5024450;28;20282;-58
2024/02/21 13:52:26;;;;;;;27.55;22.48;;;;;;;;;;5024419;28;20120;-45
2024/02/21 13:54:55;;;;;;;27.08;21.38;;;;;;;;;;5023540;28;20037;-48
2024/02/21 13:57:22;;;;;;;26.00;20.63;;;;;;;;;;5024123;28;20024;-48
2024/02/21 13:59:49;;;;;;;29.52;21.23;;;;;;;;;;5024313;28;20030;-48
2024/02/21 14:02:15;;;;;;;26.40;19.55;;;;;;;;;;5024431;28;20022;-45
2024/02/21 14:04:42;;;;;;;27.40;20.73;;;;;;;;;;5023659;28;20044;-57
2024/02/21 14:07:09;;;;;;;27.10;17.95;;;;;;;;;;5022965;28;20025;-50
2024/02/21 14:09:35;;;;;;;24.75;18.98;;;;;;;;;;5024676;28;20025;-52
2024/02/21 14:12:03;;;;;;;41.13;19.42;;;;;;;;;;5022932;28;20034;-50
2024/02/21 14:14:29;;;;;;;32.50;18.27;;;;;;;;;;5022209;28;20029;-53
2024/02/21 14:16:56;;;;;;;36.33;18.45;;;;;;;;;;5023099;28;20022;-51